Terminal Aerodrome Forecast
Issued by NWS

Home | Current Version | Previous Version | Text Only | Print | Product List | Glossary On
Versions: 1 2 3 4 5 6 7 8 9 10 11 12 13
401
FTUS43 KFGF 171130
TAFBJI
TAF
KBJI 171130Z 1712/1812 00000KT P6SM FEW250
     FM171500 19006KT P6SM FEW250
     FM171700 20010KT P6SM SKC
     FM180200 19009KT P6SM SKC WS020/24035KT
     FM180700 20009KT P6SM SKC WS020/24045KT=

USA.gov is the U.S. government's official web portal to all federal, state and local government web resources and services.